Bow Gallant — 9HA3984 — position and weather

sailwx.info

Track history (hours):
 
Tides and Currents Weather Stations Pressure Air Temp Water Temp Dewpoint Dewpoint Depression Visibility Wind Speed Wind Dir Waves Ship Positions

Bow Gallant

Last reported at 2018-Feb-21 10:59 UTC. Time now 2018-Feb-21 11:21 UTC.
Position N 37°54' W 008°52'.

Length 120 m; draft 5.9 m.

Type: Ship (hazmat cat A). MMSI: 256691000.

Date/timePositionNaut miles runAvg speedWind from/ knotsBaromVisibWave heightAir tempDewpointWater temp
2018-Feb-21 10:59N 37°54' W 008°52'0 0.0
2018-Feb-21 10:29N 37°54' W 008°52'0 0.0
2018-Feb-21 09:59N 37°54' W 008°52'0 0.0
2018-Feb-21 09:29N 37°54' W 008°52'0 0.1
2018-Feb-21 08:59N 37°54' W 008°52'0 0.0
2018-Feb-21 08:29N 37°54' W 008°52'0 0.0
2018-Feb-21 07:59N 37°54' W 008°52'0 0.3
2018-Feb-21 07:31N 37°55' W 008°52'4 7.7
2018-Feb-21 07:00N 37°57' W 008°56'4 7.4
2018-Feb-21 06:30N 37°60' W 008°59'613.0
2018-Feb-21 06:00N 38°04' W 009°05'713.2
2018-Feb-21 05:30N 38°08' W 009°12'712.9
2018-Feb-21 05:00N 38°11' W 009°19'613.0
2018-Feb-21 04:30N 38°14' W 009°26'713.4
2018-Feb-21 04:00N 38°18' W 009°34'613.2
2018-Feb-21 03:30N 38°21' W 009°41'713.1
2018-Feb-21 03:00N 38°24' W 009°48'713.3
2018-Feb-21 02:30N 38°28' W 009°55'713.6
2018-Feb-21 02:00N 38°32' W 010°02'713.6
2018-Feb-21 01:30N 38°38' W 010°06'713.4
2018-Feb-21 01:00N 38°45' W 010°06'713.7
2018-Feb-21 00:30N 38°52' W 010°06'713.8
2018-Feb-21 00:00N 38°59' W 010°04'713.8
2018-Feb-20 23:30N 39°05' W 010°04'713.7
2018-Feb-20 23:01N 39°12' W 010°04'713.6
2018-Feb-20 22:30N 39°19' W 010°05'713.4
2018-Feb-20 22:01N 39°26' W 010°05'713.3
2018-Feb-20 21:30N 39°32' W 010°05'1213.5
2018-Feb-20 20:37N 39°44' W 010°05'213.4
2018-Feb-20 20:30N 39°46' W 010°05'713.4
2018-Feb-20 20:00N 39°53' W 010°05'65613.5
2018-Feb-18 19:14N 49°48' W 003°36'312.5
2018-Feb-18 19:00N 49°50' W 003°32'712.9
2018-Feb-18 18:27N 49°53' W 003°23'713.6
2018-Feb-18 17:58N 49°56' W 003°13'614.3
2018-Feb-18 17:31N 49°58' W 003°03'815.2
2018-Feb-18 16:59N 49°60' W 002°52'3517.4
2018-Feb-18 14:58N 50°10' W 001°59'818.2
2018-Feb-18 14:31N 50°11' W 001°46'1217.4
2018-Feb-18 13:50N 50°14' W 001°28'516.4
2018-Feb-18 13:30N 50°15' W 001°20'3713.5
2018-Feb-18 10:46N 50°25' W 000°25'412.2
2018-Feb-18 10:28N 50°26' W 000°19'612.3
2018-Feb-18 10:00N 50°28' W 000°10'612.5
2018-Feb-18 09:29N 50°29' W 000°01'612.9
2018-Feb-18 09:00N 50°31' E 000°09'713.8
2018-Feb-18 08:30N 50°34' E 000°19'714.7
2018-Feb-18 08:00N 50°37' E 000°29'815.3
2018-Feb-18 07:30N 50°40' E 000°40'815.7
2018-Feb-18 07:00N 50°45' E 000°50'815.8
2018-Feb-18 06:30N 50°50' E 001°00'915.8
2018-Feb-18 05:58N 50°55' E 001°11'815.4
2018-Feb-18 05:29N 50°60' E 001°20'714.6
2018-Feb-18 05:00N 51°04' E 001°28'713.7
2018-Feb-18 04:30N 51°09' E 001°36'713.1
2018-Feb-18 04:00N 51°13' E 001°44'613.0
2018-Feb-18 03:30N 51°18' E 001°50'612.7
2018-Feb-18 03:00N 51°24' E 001°54'612.8
2018-Feb-18 02:30N 51°29' E 002°00'713.2
2018-Feb-18 02:00N 51°34' E 002°08'713.3
2018-Feb-18 01:29N 51°39' E 002°16'713.8
2018-Feb-18 01:00N 51°44' E 002°23'714.6
2018-Feb-18 00:30N 51°50' E 002°30'24513.8
2018-Feb-17 06:46N 54°00' E 008°14'414.3
2018-Feb-17 06:28N 53°60' E 008°22'817.0
2018-Feb-17 05:59N 53°58' E 008°36'816.7
2018-Feb-17 05:30N 53°52' E 008°44'816.3
2018-Feb-17 05:00N 53°51' E 008°58'714.1
2018-Feb-17 04:30N 53°53' E 009°09'612.1
2018-Feb-17 04:01N 53°51' E 009°19'612.8
2018-Feb-17 03:30N 53°45' E 009°24'611.6
2018-Feb-17 03:00N 53°41' E 009°30'0 0.8
2018-Feb-17 02:28N 53°40' E 009°30'0 0.0
2018-Feb-17 01:55N 53°40' E 009°30'0 0.0
2018-Feb-17 01:28N 53°40' E 009°30'0 0.0
2018-Feb-17 00:58N 53°40' E 009°30'0 0.0
2018-Feb-17 00:28N 53°40' E 009°30'0 0.1
2018-Feb-16 23:59N 53°40' E 009°30'2 3.2
2018-Feb-16 23:30N 53°39' E 009°31'0 0.4
2018-Feb-16 22:58N 53°39' E 009°31'0 0.0
2018-Feb-16 22:28N 53°39' E 009°31'0 0.0
2018-Feb-16 21:55N 53°39' E 009°31'0 0.0
2018-Feb-16 21:28N 53°39' E 009°31'0 0.0
2018-Feb-16 20:58N 53°39' E 009°31'0 0.0
2018-Feb-16 20:25N 53°39' E 009°31'0 0.0
2018-Feb-16 19:55N 53°39' E 009°31'0 0.0
2018-Feb-16 19:28N 53°39' E 009°31'0 0.0
2018-Feb-16 18:55N 53°39' E 009°31'0 0.0
2018-Feb-16 18:28N 53°39' E 009°31'0 0.0
2018-Feb-16 17:55N 53°39' E 009°31'0 0.0
2018-Feb-16 17:28N 53°39' E 009°31'0 0.0
2018-Feb-16 16:58N 53°39' E 009°31'0 0.0
2018-Feb-16 16:25N 53°39' E 009°31'0 0.0
2018-Feb-16 15:58N 53°39' E 009°31'0 0.0
2018-Feb-16 15:25N 53°39' E 009°31'0 0.0
2018-Feb-16 14:55N 53°39' E 009°31'0 0.0
2018-Feb-16 14:28N 53°39' E 009°31'0 0.0
2018-Feb-16 13:55N 53°39' E 009°31'0 0.0
2018-Feb-16 13:25N 53°39' E 009°31'0 0.0
2018-Feb-16 12:58N 53°39' E 009°31'0 0.0
2018-Feb-16 12:28N 53°39' E 009°31'0 0.0
2018-Feb-16 11:58N 53°39' E 009°31'0 0.0
2018-Feb-16 11:28N 53°39' E 009°31'0 0.0
2018-Feb-16 10:55N 53°39' E 009°31'0 0.0
2018-Feb-16 10:28N 53°39' E 009°31'0 0.0
2018-Feb-16 09:58N 53°39' E 009°31'0 0.0
2018-Feb-16 09:28N 53°39' E 009°31'0 0.0
2018-Feb-16 08:58N 53°39' E 009°31'0 0.0
2018-Feb-16 08:28N 53°39' E 009°31'0 0.0
2018-Feb-16 07:58N 53°39' E 009°31'0 0.0
2018-Feb-16 07:28N 53°39' E 009°31'0 0.0
2018-Feb-16 06:58N 53°39' E 009°31'0 0.0
2018-Feb-16 06:28N 53°39' E 009°31'0 0.0
2018-Feb-16 05:58N 53°39' E 009°31'0 0.0
2018-Feb-16 05:28N 53°39' E 009°31'0 0.0
2018-Feb-16 04:58N 53°39' E 009°31'0 0.0
2018-Feb-16 04:28N 53°39' E 009°31'0 0.0
2018-Feb-16 03:58N 53°39' E 009°31'0 0.0
2018-Feb-16 03:28N 53°39' E 009°31'0 0.0
2018-Feb-16 02:58N 53°39' E 009°31'0 0.0
2018-Feb-16 02:28N 53°39' E 009°31'0 0.0
2018-Feb-16 01:58N 53°39' E 009°31'0 0.0
2018-Feb-16 01:28N 53°39' E 009°31'0 0.0
2018-Feb-16 00:58N 53°39' E 009°31'0 0.0
2018-Feb-16 00:28N 53°39' E 009°31'0 0.0
2018-Feb-16 00:00N 53°39' E 009°31'1 2.4
2018-Feb-15 23:31N 53°40' E 009°30'713.7
2018-Feb-15 23:01N 53°46' E 009°24'815.0
2018-Feb-15 22:30N 53°52' E 009°17'714.4
2018-Feb-15 22:00N 53°52' E 009°04'815.9
2018-Feb-15 21:30N 53°50' E 008°51'714.6
2018-Feb-15 21:00N 53°54' E 008°41'815.5
2018-Feb-15 20:30N 53°58' E 008°30'816.5
2018-Feb-15 20:00N 53°60' E 008°16'612.3
2018-Feb-15 19:30N 53°59' E 008°05'710.7
2018-Feb-15 18:52N 53°58' E 007°54'13912.4
2018-Feb-15 07:42N 53°00' E 004°22'314.3
2018-Feb-15 07:30N 52°58' E 004°20'10314.9
2018-Feb-15 00:35N 51°41' E 002°28'116.4
2018-Feb-15 00:30N 51°40' E 002°28'816.0
2018-Feb-15 00:00N 51°33' E 002°20'815.8
2018-Feb-14 23:30N 51°27' E 002°13'816.1
2018-Feb-14 23:00N 51°19' E 002°09'815.6
2018-Feb-14 22:31N 51°13' E 002°01'816.4
2018-Feb-14 22:01N 51°09' E 001°49'816.2
2018-Feb-14 21:30N 51°03' E 001°41'816.4
2018-Feb-14 21:00N 50°57' E 001°32'815.4
2018-Feb-14 20:28N 50°49' E 001°26'5112.9
2018-Feb-14 16:28N 50°23' E 000°17'612.9
2018-Feb-14 16:00N 50°21' E 000°08'912.6
2018-Feb-14 15:19N 50°18' W 000°05'712.2
2018-Feb-14 14:46N 50°16' W 000°15'3411.6
2018-Feb-14 11:51N 50°07' W 001°06'412.4
2018-Feb-14 11:30N 50°06' W 001°13'713.2
2018-Feb-14 11:00N 50°04' W 001°22'713.9
2018-Feb-14 10:30N 50°02' W 001°32'714.7
2018-Feb-14 10:00N 49°60' W 001°43'815.2
2018-Feb-14 09:31N 49°58' W 001°55'  
2018-Feb-11 21:52N 39°18' W 009°55'513.5
2018-Feb-11 21:28N 39°13' W 009°56'713.5
2018-Feb-11 20:57N 39°06' W 009°57'613.4
2018-Feb-11 20:30N 38°60' W 009°57'713.3
2018-Feb-11 19:57N 38°52' W 009°57'613.4
2018-Feb-11 19:30N 38°47' W 009°57'613.2
2018-Feb-11 19:00N 38°40' W 009°56'613.0
2018-Feb-11 18:30N 38°34' W 009°54'713.1
2018-Feb-11 18:00N 38°27' W 009°52'  
Track history (hours):
 
Tides and Currents Weather Stations Pressure Air Temp Water Temp Dewpoint Dewpoint Depression Visibility Wind Speed Wind Dir Waves Ship Positions

Bow Gallant

Last reported at 2018-Feb-21 10:59 UTC. Time now 2018-Feb-21 11:21 UTC.
Position N 37°54' W 008°52'.

Length 120 m; draft 5.9 m.

Type: Ship (hazmat cat A). MMSI: 256691000.

Date/timePositionNaut miles runAvg speedWind from/ knotsBaromVisibWave heightAir tempDewpointWater temp
2018-Feb-21 10:59N 37°54' W 008°52'0 0.0
2018-Feb-21 10:29N 37°54' W 008°52'0 0.0
2018-Feb-21 09:59N 37°54' W 008°52'0 0.0
2018-Feb-21 09:29N 37°54' W 008°52'0 0.1
2018-Feb-21 08:59N 37°54' W 008°52'0 0.0
2018-Feb-21 08:29N 37°54' W 008°52'0 0.0
2018-Feb-21 07:59N 37°54' W 008°52'0 0.3
2018-Feb-21 07:31N 37°55' W 008°52'4 7.7
2018-Feb-21 07:00N 37°57' W 008°56'4 7.4
2018-Feb-21 06:30N 37°60' W 008°59'613.0
2018-Feb-21 06:00N 38°04' W 009°05'713.2
2018-Feb-21 05:30N 38°08' W 009°12'712.9
2018-Feb-21 05:00N 38°11' W 009°19'613.0
2018-Feb-21 04:30N 38°14' W 009°26'713.4
2018-Feb-21 04:00N 38°18' W 009°34'613.2
2018-Feb-21 03:30N 38°21' W 009°41'713.1
2018-Feb-21 03:00N 38°24' W 009°48'713.3
2018-Feb-21 02:30N 38°28' W 009°55'713.6
2018-Feb-21 02:00N 38°32' W 010°02'713.6
2018-Feb-21 01:30N 38°38' W 010°06'713.4
2018-Feb-21 01:00N 38°45' W 010°06'713.7
2018-Feb-21 00:30N 38°52' W 010°06'713.8
2018-Feb-21 00:00N 38°59' W 010°04'713.8
2018-Feb-20 23:30N 39°05' W 010°04'713.7
2018-Feb-20 23:01N 39°12' W 010°04'713.6
2018-Feb-20 22:30N 39°19' W 010°05'713.4
2018-Feb-20 22:01N 39°26' W 010°05'713.3
2018-Feb-20 21:30N 39°32' W 010°05'1213.5
2018-Feb-20 20:37N 39°44' W 010°05'213.4
2018-Feb-20 20:30N 39°46' W 010°05'713.4
2018-Feb-20 20:00N 39°53' W 010°05'65613.5
2018-Feb-18 19:14N 49°48' W 003°36'312.5
2018-Feb-18 19:00N 49°50' W 003°32'712.9
2018-Feb-18 18:27N 49°53' W 003°23'713.6
2018-Feb-18 17:58N 49°56' W 003°13'614.3
2018-Feb-18 17:31N 49°58' W 003°03'815.2
2018-Feb-18 16:59N 49°60' W 002°52'3517.4
2018-Feb-18 14:58N 50°10' W 001°59'818.2
2018-Feb-18 14:31N 50°11' W 001°46'1217.4
2018-Feb-18 13:50N 50°14' W 001°28'516.4
2018-Feb-18 13:30N 50°15' W 001°20'3713.5
2018-Feb-18 10:46N 50°25' W 000°25'412.2
2018-Feb-18 10:28N 50°26' W 000°19'612.3
2018-Feb-18 10:00N 50°28' W 000°10'612.5
2018-Feb-18 09:29N 50°29' W 000°01'612.9
2018-Feb-18 09:00N 50°31' E 000°09'713.8
2018-Feb-18 08:30N 50°34' E 000°19'714.7
2018-Feb-18 08:00N 50°37' E 000°29'815.3
2018-Feb-18 07:30N 50°40' E 000°40'815.7
2018-Feb-18 07:00N 50°45' E 000°50'815.8
2018-Feb-18 06:30N 50°50' E 001°00'915.8
2018-Feb-18 05:58N 50°55' E 001°11'815.4
2018-Feb-18 05:29N 50°60' E 001°20'714.6
2018-Feb-18 05:00N 51°04' E 001°28'713.7
2018-Feb-18 04:30N 51°09' E 001°36'713.1
2018-Feb-18 04:00N 51°13' E 001°44'613.0
2018-Feb-18 03:30N 51°18' E 001°50'612.7
2018-Feb-18 03:00N 51°24' E 001°54'612.8
2018-Feb-18 02:30N 51°29' E 002°00'713.2
2018-Feb-18 02:00N 51°34' E 002°08'713.3
2018-Feb-18 01:29N 51°39' E 002°16'713.8
2018-Feb-18 01:00N 51°44' E 002°23'714.6
2018-Feb-18 00:30N 51°50' E 002°30'24513.8
2018-Feb-17 06:46N 54°00' E 008°14'414.3
2018-Feb-17 06:28N 53°60' E 008°22'817.0
2018-Feb-17 05:59N 53°58' E 008°36'816.7
2018-Feb-17 05:30N 53°52' E 008°44'816.3
2018-Feb-17 05:00N 53°51' E 008°58'714.1
2018-Feb-17 04:30N 53°53' E 009°09'612.1
2018-Feb-17 04:01N 53°51' E 009°19'612.8
2018-Feb-17 03:30N 53°45' E 009°24'611.6
2018-Feb-17 03:00N 53°41' E 009°30'0 0.8
2018-Feb-17 02:28N 53°40' E 009°30'0 0.0
2018-Feb-17 01:55N 53°40' E 009°30'0 0.0
2018-Feb-17 01:28N 53°40' E 009°30'0 0.0
2018-Feb-17 00:58N 53°40' E 009°30'0 0.0
2018-Feb-17 00:28N 53°40' E 009°30'0 0.1
2018-Feb-16 23:59N 53°40' E 009°30'2 3.2
2018-Feb-16 23:30N 53°39' E 009°31'0 0.4
2018-Feb-16 22:58N 53°39' E 009°31'0 0.0
2018-Feb-16 22:28N 53°39' E 009°31'0 0.0
2018-Feb-16 21:55N 53°39' E 009°31'0 0.0
2018-Feb-16 21:28N 53°39' E 009°31'0 0.0
2018-Feb-16 20:58N 53°39' E 009°31'0 0.0
2018-Feb-16 20:25N 53°39' E 009°31'0 0.0
2018-Feb-16 19:55N 53°39' E 009°31'0 0.0
2018-Feb-16 19:28N 53°39' E 009°31'0 0.0
2018-Feb-16 18:55N 53°39' E 009°31'0 0.0
2018-Feb-16 18:28N 53°39' E 009°31'0 0.0
2018-Feb-16 17:55N 53°39' E 009°31'0 0.0
2018-Feb-16 17:28N 53°39' E 009°31'0 0.0
2018-Feb-16 16:58N 53°39' E 009°31'0 0.0
2018-Feb-16 16:25N 53°39' E 009°31'0 0.0
2018-Feb-16 15:58N 53°39' E 009°31'0 0.0
2018-Feb-16 15:25N 53°39' E 009°31'0 0.0
2018-Feb-16 14:55N 53°39' E 009°31'0 0.0
2018-Feb-16 14:28N 53°39' E 009°31'0 0.0
2018-Feb-16 13:55N 53°39' E 009°31'0 0.0
2018-Feb-16 13:25N 53°39' E 009°31'0 0.0
2018-Feb-16 12:58N 53°39' E 009°31'0 0.0
2018-Feb-16 12:28N 53°39' E 009°31'0 0.0
2018-Feb-16 11:58N 53°39' E 009°31'0 0.0
2018-Feb-16 11:28N 53°39' E 009°31'0 0.0
2018-Feb-16 10:55N 53°39' E 009°31'0 0.0
2018-Feb-16 10:28N 53°39' E 009°31'0 0.0
2018-Feb-16 09:58N 53°39' E 009°31'0 0.0
2018-Feb-16 09:28N 53°39' E 009°31'0 0.0
2018-Feb-16 08:58N 53°39' E 009°31'0 0.0
2018-Feb-16 08:28N 53°39' E 009°31'0 0.0
2018-Feb-16 07:58N 53°39' E 009°31'0 0.0
2018-Feb-16 07:28N 53°39' E 009°31'0 0.0
2018-Feb-16 06:58N 53°39' E 009°31'0 0.0
2018-Feb-16 06:28N 53°39' E 009°31'0 0.0
2018-Feb-16 05:58N 53°39' E 009°31'0 0.0
2018-Feb-16 05:28N 53°39' E 009°31'0 0.0
2018-Feb-16 04:58N 53°39' E 009°31'0 0.0
2018-Feb-16 04:28N 53°39' E 009°31'0 0.0
2018-Feb-16 03:58N 53°39' E 009°31'0 0.0
2018-Feb-16 03:28N 53°39' E 009°31'0 0.0
2018-Feb-16 02:58N 53°39' E 009°31'0 0.0
2018-Feb-16 02:28N 53°39' E 009°31'0 0.0
2018-Feb-16 01:58N 53°39' E 009°31'0 0.0
2018-Feb-16 01:28N 53°39' E 009°31'0 0.0
2018-Feb-16 00:58N 53°39' E 009°31'0 0.0
2018-Feb-16 00:28N 53°39' E 009°31'0 0.0
2018-Feb-16 00:00N 53°39' E 009°31'1 2.4
2018-Feb-15 23:31N 53°40' E 009°30'713.7
2018-Feb-15 23:01N 53°46' E 009°24'815.0
2018-Feb-15 22:30N 53°52' E 009°17'714.4
2018-Feb-15 22:00N 53°52' E 009°04'815.9
2018-Feb-15 21:30N 53°50' E 008°51'714.6
2018-Feb-15 21:00N 53°54' E 008°41'815.5
2018-Feb-15 20:30N 53°58' E 008°30'816.5
2018-Feb-15 20:00N 53°60' E 008°16'612.3
2018-Feb-15 19:30N 53°59' E 008°05'710.7
2018-Feb-15 18:52N 53°58' E 007°54'13912.4
2018-Feb-15 07:42N 53°00' E 004°22'314.3
2018-Feb-15 07:30N 52°58' E 004°20'10314.9
2018-Feb-15 00:35N 51°41' E 002°28'116.4
2018-Feb-15 00:30N 51°40' E 002°28'816.0
2018-Feb-15 00:00N 51°33' E 002°20'815.8
2018-Feb-14 23:30N 51°27' E 002°13'816.1
2018-Feb-14 23:00N 51°19' E 002°09'815.6
2018-Feb-14 22:31N 51°13' E 002°01'816.4
2018-Feb-14 22:01N 51°09' E 001°49'816.2
2018-Feb-14 21:30N 51°03' E 001°41'816.4
2018-Feb-14 21:00N 50°57' E 001°32'815.4
2018-Feb-14 20:28N 50°49' E 001°26'5112.9
2018-Feb-14 16:28N 50°23' E 000°17'612.9
2018-Feb-14 16:00N 50°21' E 000°08'912.6
2018-Feb-14 15:19N 50°18' W 000°05'712.2
2018-Feb-14 14:46N 50°16' W 000°15'3411.6
2018-Feb-14 11:51N 50°07' W 001°06'412.4
2018-Feb-14 11:30N 50°06' W 001°13'713.2
2018-Feb-14 11:00N 50°04' W 001°22'713.9
2018-Feb-14 10:30N 50°02' W 001°32'714.7
2018-Feb-14 10:00N 49°60' W 001°43'815.2
2018-Feb-14 09:31N 49°58' W 001°55'  
2018-Feb-11 21:52N 39°18' W 009°55'513.5
2018-Feb-11 21:28N 39°13' W 009°56'713.5
2018-Feb-11 20:57N 39°06' W 009°57'613.4
2018-Feb-11 20:30N 38°60' W 009°57'713.3
2018-Feb-11 19:57N 38°52' W 009°57'613.4
2018-Feb-11 19:30N 38°47' W 009°57'613.2
2018-Feb-11 19:00N 38°40' W 009°56'613.0
2018-Feb-11 18:30N 38°34' W 009°54'713.1
2018-Feb-11 18:00N 38°27' W 009°52'  

Dump ship's entire track history